createdAt,value
2023-01-11T00:00:48.591Z,5.10
2023-01-11T00:05:12.747Z,5.20
2023-01-11T00:09:36.808Z,5.10
2023-01-11T00:14:02.162Z,5.10
2023-01-11T00:18:25.945Z,5.20
2023-01-11T00:22:49.812Z,5.20
2023-01-11T00:27:13.780Z,5.20
2023-01-11T00:31:39.121Z,5.20
2023-01-11T00:36:03.372Z,5.20
2023-01-11T00:40:27.971Z,5.30
2023-01-11T00:45:09.183Z,5.30
2023-01-11T00:49:34.957Z,5.30
2023-01-11T00:53:58.693Z,5.30
2023-01-11T00:58:22.720Z,5.30
2023-01-11T01:02:46.600Z,5.30
2023-01-11T01:07:12.707Z,5.30
2023-01-11T01:11:36.552Z,5.40
2023-01-11T01:16:00.477Z,5.50
2023-01-11T01:20:25.033Z,5.50
2023-01-11T01:24:50.239Z,5.60
2023-01-11T01:29:15.853Z,5.70
2023-01-11T01:33:40.008Z,5.80
2023-01-11T01:38:03.765Z,5.80
2023-01-11T01:42:29.134Z,5.90
2023-01-11T01:46:53.286Z,5.90
2023-01-11T01:51:22.107Z,5.90
2023-01-11T01:55:51.815Z,5.90
2023-01-11T02:00:18.149Z,6.00
2023-01-11T02:04:45.984Z,6.00
2023-01-11T02:09:19.890Z,6.00
2023-01-11T02:13:46.191Z,6.00
2023-01-11T02:18:14.355Z,6.10
2023-01-11T02:23:07.177Z,6.00
2023-01-11T02:27:47.280Z,6.00
2023-01-11T02:32:18.443Z,6.00
2023-01-11T02:36:54.489Z,6.00
2023-01-11T02:41:22.633Z,6.00
2023-01-11T02:45:55.629Z,5.90
2023-01-11T02:50:29.791Z,5.90
2023-01-11T02:54:54.526Z,5.80
2023-01-11T02:59:15.298Z,5.80
2023-01-11T03:03:34.832Z,5.80
2023-01-11T03:08:02.873Z,5.80
2023-01-11T03:12:55.030Z,5.80
2023-01-11T03:17:24.244Z,5.90
2023-01-11T03:21:57.294Z,5.90
2023-01-11T03:26:25.292Z,5.90
2023-01-11T03:30:52.848Z,5.90
2023-01-11T03:35:25.577Z,5.80
2023-01-11T03:40:00.658Z,5.90
2023-01-11T03:44:27.982Z,5.90
2023-01-11T03:48:56.810Z,5.90
2023-01-11T03:53:23.678Z,6.00
2023-01-11T03:57:51.684Z,6.00
2023-01-11T04:02:21.053Z,6.00
2023-01-11T04:06:44.950Z,6.00
2023-01-11T04:11:08.655Z,6.00
2023-01-11T04:15:34.903Z,6.00
2023-01-11T04:19:58.782Z,6.00
2023-01-11T04:24:22.837Z,6.00
2023-01-11T04:28:46.740Z,6.10
2023-01-11T04:33:13.279Z,6.10
2023-01-11T04:37:37.122Z,6.00
2023-01-11T04:42:18.275Z,6.00
2023-01-11T04:46:42.158Z,6.10
2023-01-11T04:51:07.620Z,6.00
2023-01-11T04:55:31.312Z,6.00
2023-01-11T04:59:55.011Z,5.90
2023-01-11T05:04:18.881Z,5.80
2023-01-11T05:08:47.997Z,5.80
2023-01-11T05:13:11.828Z,5.80
2023-01-11T05:17:35.699Z,5.80
2023-01-11T05:21:59.797Z,5.80
2023-01-11T05:26:28.321Z,5.80
2023-01-11T05:30:53.675Z,5.80
2023-01-11T05:35:17.700Z,5.80
2023-01-11T05:39:41.464Z,5.70
2023-01-11T05:44:24.402Z,5.70
2023-01-11T05:48:48.384Z,5.70
2023-01-11T05:53:12.107Z,5.70
2023-01-11T05:57:35.827Z,5.80
2023-01-11T06:02:01.089Z,5.80
2023-01-11T06:06:25.129Z,5.90
2023-01-11T06:10:52.745Z,5.90
2023-01-11T06:15:16.647Z,6.00
2023-01-11T06:19:41.938Z,5.90
2023-01-11T06:24:06.119Z,6.00
2023-01-11T06:28:29.966Z,6.00
2023-01-11T06:32:53.768Z,6.10
2023-01-11T06:37:18.937Z,6.10
2023-01-11T06:41:42.710Z,6.10
2023-01-11T06:46:06.994Z,6.10
2023-01-11T06:50:30.915Z,6.20
2023-01-11T06:54:56.065Z,6.30
2023-01-11T06:59:19.911Z,6.30
2023-01-11T07:03:45.356Z,6.30
2023-01-11T07:08:09.374Z,6.30
2023-01-11T07:12:34.997Z,6.20
2023-01-11T07:16:58.996Z,6.20
2023-01-11T07:21:22.835Z,6.20
2023-01-11T07:25:46.580Z,6.20
2023-01-11T07:30:13.070Z,6.20
2023-01-11T07:34:37.544Z,6.20
2023-01-11T07:39:01.481Z,6.30
2023-01-11T07:43:25.270Z,6.40
2023-01-11T07:47:52.389Z,6.50
2023-01-11T07:52:16.410Z,6.50
2023-01-11T07:56:40.135Z,6.60
2023-01-11T08:01:03.936Z,6.70
2023-01-11T08:05:29.086Z,6.80
2023-01-11T08:09:52.960Z,6.90
2023-01-11T08:14:34.489Z,7.00
2023-01-11T08:18:58.413Z,7.00
2023-01-11T08:23:23.483Z,7.10
2023-01-11T08:27:47.656Z,7.20
2023-01-11T08:32:11.489Z,7.20
2023-01-11T08:36:35.350Z,7.30
2023-01-11T08:41:00.595Z,7.40
2023-01-11T08:45:24.494Z,7.50
2023-01-11T08:49:48.294Z,7.60
2023-01-11T08:54:14.332Z,7.70
2023-01-11T08:58:39.552Z,7.80
2023-01-11T09:03:03.757Z,7.90
2023-01-11T09:07:27.672Z,8.00
2023-01-11T09:12:00.360Z,8.10
2023-01-11T09:16:25.967Z,8.30
2023-01-11T09:20:52.263Z,8.40
2023-01-11T09:25:16.677Z,8.50
2023-01-11T09:29:40.518Z,8.60
2023-01-11T09:34:07.152Z,8.70
2023-01-11T09:38:33.237Z,8.80
2023-01-11T09:43:01.354Z,8.90
2023-01-11T09:47:36.820Z,8.90
2023-01-11T09:52:11.500Z,8.90
2023-01-11T09:56:45.831Z,8.90
2023-01-11T10:01:16.021Z,8.90
2023-01-11T10:05:56.030Z,8.90
2023-01-11T10:18:25.786Z,9.10
2023-01-11T10:20:24.670Z,9.20
2023-01-11T10:24:51.893Z,9.20
2023-01-11T10:29:46.065Z,9.30
2023-01-11T10:34:38.489Z,9.40
2023-01-11T10:39:27.209Z,9.40
2023-01-11T10:44:01.578Z,9.50
2023-01-11T10:48:32.033Z,9.50
2023-01-11T10:53:03.061Z,9.50
2023-01-11T10:58:00.119Z,9.60
2023-01-11T11:02:47.292Z,9.60
2023-01-11T11:07:23.286Z,9.60
2023-01-11T11:11:54.338Z,9.60
2023-01-11T11:16:34.068Z,9.70
2023-01-11T11:21:03.919Z,9.70
2023-01-11T11:25:32.209Z,9.70
2023-01-11T11:29:58.214Z,9.80
2023-01-11T11:34:27.530Z,9.70
2023-01-11T11:39:05.486Z,9.70
2023-01-11T11:43:31.236Z,9.50
2023-01-11T11:48:06.694Z,9.40
2023-01-11T11:52:30.974Z,9.30
2023-01-11T11:56:56.895Z,9.20
2023-01-11T12:01:27.447Z,9.20
2023-01-11T12:05:54.927Z,9.10
2023-01-11T12:10:21.931Z,9.00
2023-01-11T12:15:08.147Z,9.00
2023-01-11T12:19:37.662Z,9.00
2023-01-11T12:24:17.212Z,9.00
2023-01-11T12:29:11.228Z,9.00
2023-01-11T12:33:45.543Z,9.00
2023-01-11T12:38:30.951Z,9.00
2023-01-11T12:43:16.568Z,9.10
2023-01-11T12:48:09.640Z,9.00
2023-01-11T12:52:52.020Z,9.00
2023-01-11T12:57:26.956Z,9.10
2023-01-11T13:02:04.290Z,9.10
2023-01-11T13:06:36.422Z,9.10
2023-01-11T13:11:08.607Z,9.10
2023-01-11T13:15:43.987Z,9.10
2023-01-11T13:20:21.215Z,9.10
2023-01-11T13:24:49.345Z,9.10
2023-01-11T13:29:18.008Z,9.10
2023-01-11T13:33:48.773Z,9.10
2023-01-11T13:38:22.041Z,9.10
2023-01-11T13:42:49.869Z,9.10
2023-01-11T13:47:21.579Z,9.10
2023-01-11T13:51:53.252Z,9.10
2023-01-11T13:56:23.277Z,9.10
2023-01-11T14:00:53.215Z,9.10
2023-01-11T14:05:19.710Z,9.00
2023-01-11T14:10:04.382Z,9.00
2023-01-11T14:14:58.988Z,9.00
2023-01-11T14:19:29.552Z,9.00
2023-01-11T14:23:55.240Z,9.00
2023-01-11T14:28:40.165Z,8.90
2023-01-11T14:33:28.941Z,8.90
2023-01-11T14:38:31.590Z,8.90
2023-01-11T14:43:17.154Z,8.90
2023-01-11T14:47:56.414Z,8.90
2023-01-11T14:52:38.520Z,8.80
2023-01-11T14:57:03.635Z,8.80
2023-01-11T15:01:27.907Z,8.80
2023-01-11T15:05:56.773Z,8.80
2023-01-11T15:10:56.513Z,8.80
2023-01-11T15:15:22.298Z,8.80
2023-01-11T15:19:47.409Z,8.70
2023-01-11T15:24:24.525Z,8.80
2023-01-11T15:28:54.214Z,8.70
2023-01-11T15:33:46.287Z,8.70
2023-01-11T15:38:14.701Z,8.70
2023-01-11T15:43:08.331Z,8.70
2023-01-11T15:47:55.082Z,8.70
2023-01-11T15:52:50.486Z,8.60
2023-01-11T15:57:50.767Z,8.70
2023-01-11T16:03:00.321Z,8.60
2023-01-11T16:07:29.424Z,8.60
2023-01-11T16:12:06.343Z,8.60
2023-01-11T16:16:39.275Z,8.60
2023-01-11T16:21:08.379Z,8.60
2023-01-11T16:25:35.297Z,8.70
2023-01-11T16:29:59.486Z,8.60
2023-01-11T16:34:24.732Z,8.70
2023-01-11T16:38:57.961Z,8.70
2023-01-11T16:43:26.643Z,8.70
2023-01-11T16:48:14.579Z,8.70
2023-01-11T16:52:50.769Z,8.70
2023-01-11T16:57:16.548Z,8.70
2023-01-11T17:01:52.687Z,8.70
2023-01-11T17:06:21.767Z,8.70
2023-01-11T17:10:53.303Z,8.70
2023-01-11T17:15:24.376Z,8.70
2023-01-11T17:19:49.908Z,8.70
2023-01-11T17:24:15.068Z,8.70
2023-01-11T17:28:40.200Z,8.70
2023-01-11T17:33:04.021Z,8.60
2023-01-11T17:37:28.118Z,8.60
2023-01-11T17:42:09.952Z,8.60
2023-01-11T17:46:36.042Z,8.60
2023-01-11T17:51:01.783Z,8.50
2023-01-11T17:55:28.077Z,8.50
2023-01-11T18:00:11.962Z,8.50
2023-01-11T18:04:37.346Z,8.50
2023-01-11T18:09:03.432Z,8.50
2023-01-11T18:13:31.963Z,8.50
2023-01-11T18:17:57.761Z,8.40
2023-01-11T18:22:30.939Z,8.40
2023-01-11T18:27:20.166Z,8.30
2023-01-11T18:31:44.116Z,8.20
2023-01-11T18:36:20.313Z,8.20
2023-01-11T18:40:46.091Z,8.10
2023-01-11T18:45:12.786Z,8.00
2023-01-11T18:49:36.472Z,7.90
2023-01-11T18:54:00.328Z,7.90
2023-01-11T18:58:25.502Z,7.80
2023-01-11T19:02:52.500Z,7.80
2023-01-11T19:07:16.731Z,7.70
2023-01-11T19:11:40.492Z,7.70
2023-01-11T19:16:06.904Z,7.70
2023-01-11T19:24:55.476Z,7.70
2023-01-11T19:29:20.319Z,7.80
2023-01-11T19:33:45.523Z,7.80
2023-01-11T19:38:10.091Z,7.80
2023-01-11T19:42:34.176Z,7.80
2023-01-11T19:47:10.428Z,7.80
2023-01-11T19:51:36.474Z,7.80
2023-01-11T19:56:03.602Z,7.80
2023-01-11T20:00:27.712Z,7.80
2023-01-11T20:04:51.845Z,7.90
2023-01-11T20:09:17.572Z,7.90
2023-01-11T20:13:41.819Z,7.80
2023-01-11T20:18:05.765Z,7.80
2023-01-11T20:22:29.962Z,7.80
2023-01-11T20:26:55.935Z,7.80
2023-01-11T20:31:19.893Z,7.70
2023-01-11T20:35:43.911Z,7.70
2023-01-11T20:40:08.986Z,7.60
2023-01-11T20:44:34.099Z,7.60
2023-01-11T20:48:57.876Z,7.50
2023-01-11T20:53:21.610Z,7.40
2023-01-11T20:57:46.252Z,7.40
2023-01-11T21:02:15.172Z,7.30
2023-01-11T21:06:41.397Z,7.20
2023-01-11T21:11:06.164Z,7.10
2023-01-11T21:15:30.286Z,7.00
2023-01-11T21:19:55.463Z,7.00
2023-01-11T21:24:19.291Z,6.90
2023-01-11T21:28:43.885Z,6.90
2023-01-11T21:33:07.619Z,6.90
2023-01-11T21:37:33.179Z,6.90
2023-01-11T21:41:58.295Z,6.80
2023-01-11T21:46:22.248Z,6.80
2023-01-11T21:50:46.699Z,6.80
2023-01-11T21:55:12.062Z,6.70
2023-01-11T21:59:36.143Z,6.60
2023-01-11T22:04:00.527Z,6.50
2023-01-11T22:08:24.353Z,6.50
2023-01-11T22:12:49.506Z,6.50
2023-01-11T22:17:13.312Z,6.40
2023-01-11T22:21:38.320Z,6.40
2023-01-11T22:26:05.243Z,6.40
2023-01-11T22:30:30.626Z,6.40
2023-01-11T22:34:54.433Z,6.40
2023-01-11T22:39:19.628Z,6.40
2023-01-11T22:43:44.117Z,6.30
2023-01-11T22:48:09.310Z,6.40
2023-01-11T22:52:33.260Z,6.40
2023-01-11T22:56:58.513Z,6.40
2023-01-11T23:01:24.212Z,6.30
2023-01-11T23:05:49.461Z,6.30
2023-01-11T23:10:13.680Z,6.20
2023-01-11T23:14:37.572Z,6.10
2023-01-11T23:19:02.120Z,6.10
2023-01-11T23:23:29.663Z,6.00
2023-01-11T23:27:54.703Z,6.00
2023-01-11T23:32:18.620Z,5.90
2023-01-11T23:36:43.926Z,5.90
2023-01-11T23:41:27.887Z,5.90
2023-01-11T23:46:11.973Z,5.90
2023-01-11T23:50:35.753Z,6.00
2023-01-11T23:55:00.373Z,6.00
2023-01-11T23:59:25.757Z,5.90
